Monongah, West Virginia
Current Conditions -  °F | °C
As of 3:04 AM on Monday 26 Jan 2015 (Local Time) from KCKB Reporting Station
Light Rain Light Rain  
Wind Chill: 29°   Ceiling: 2600
Heat Index: 35°   Visibility: 2.5mi
Dew Point: 34°   Wind: 8mph
Humidity: 96%   Direction: 30°NNE
Pressure: 29.66"   Gusts: NA
Location:  39.485°N, 80.1426°W
Report Text: KCKB 260804Z AUTO 03007KT 2 1/2SM -RA BR FEW002 OVC026 02/01 A2966 RMK AO2 P0000 T00170011
Loading
Personal Weather Stations






























Interactive Weather Map New forecast layout! Learn more

10-Day Weather Forecast

Advertisements
Track Severe Weather on mobile